sensor_id;sensor_type;location;lat;lon;timestamp;pressure;altitude;pressure_sealevel;temperature;humidity
5550;BME280;2798;42.716;23.256;2024-02-04T00:01:46;95121.97;;;8.52;61.30
5550;BME280;2798;42.716;23.256;2024-02-04T00:04:11;95121.72;;;8.57;60.91
5550;BME280;2798;42.716;23.256;2024-02-04T00:06:37;95119.16;;;8.57;60.96
5550;BME280;2798;42.716;23.256;2024-02-04T00:09:02;95126.94;;;8.56;61.20
5550;BME280;2798;42.716;23.256;2024-02-04T00:11:29;95127.84;;;8.55;61.31
5550;BME280;2798;42.716;23.256;2024-02-04T00:13:54;95126.84;;;8.57;61.50
5550;BME280;2798;42.716;23.256;2024-02-04T00:16:19;95127.66;;;8.58;62.21
5550;BME280;2798;42.716;23.256;2024-02-04T00:18:44;95124.59;;;8.67;61.58
5550;BME280;2798;42.716;23.256;2024-02-04T00:21:10;95128.59;;;8.71;61.96
5550;BME280;2798;42.716;23.256;2024-02-04T00:23:35;95131.34;;;8.68;61.15
5550;BME280;2798;42.716;23.256;2024-02-04T00:26:00;95122.72;;;8.69;62.32
5550;BME280;2798;42.716;23.256;2024-02-04T00:28:25;95127.06;;;8.69;62.27
5550;BME280;2798;42.716;23.256;2024-02-04T00:30:52;95125.28;;;8.69;62.57
5550;BME280;2798;42.716;23.256;2024-02-04T00:33:20;95108.31;;;8.52;62.62
5550;BME280;2798;42.716;23.256;2024-02-04T00:35:45;95125.03;;;8.74;62.84
5550;BME280;2798;42.716;23.256;2024-02-04T00:38:11;95128.50;;;8.73;63.21
5550;BME280;2798;42.716;23.256;2024-02-04T00:40:36;95121.84;;;8.70;62.82
5550;BME280;2798;42.716;23.256;2024-02-04T00:43:02;95118.25;;;8.73;62.41
5550;BME280;2798;42.716;23.256;2024-02-04T00:45:27;95116.44;;;8.75;62.29
5550;BME280;2798;42.716;23.256;2024-02-04T00:47:52;95123.19;;;8.76;62.87
5550;BME280;2798;42.716;23.256;2024-02-04T00:50:18;95116.59;;;8.72;63.36
5550;BME280;2798;42.716;23.256;2024-02-04T00:52:43;95120.72;;;8.74;62.97
5550;BME280;2798;42.716;23.256;2024-02-04T00:55:08;95121.56;;;8.75;62.81
5550;BME280;2798;42.716;23.256;2024-02-04T00:57:33;95123.28;;;8.74;62.90
5550;BME280;2798;42.716;23.256;2024-02-04T00:59:59;95110.94;;;8.81;62.26
5550;BME280;2798;42.716;23.256;2024-02-04T01:02:24;95120.09;;;8.85;62.42
5550;BME280;2798;42.716;23.256;2024-02-04T01:04:49;95128.25;;;8.77;63.04
5550;BME280;2798;42.716;23.256;2024-02-04T01:07:16;95115.97;;;8.83;62.30
5550;BME280;2798;42.716;23.256;2024-02-04T01:09:41;95116.06;;;8.81;62.71
5550;BME280;2798;42.716;23.256;2024-02-04T01:12:07;95114.44;;;8.80;63.24
5550;BME280;2798;42.716;23.256;2024-02-04T01:14:32;95121.38;;;8.78;62.35
5550;BME280;2798;42.716;23.256;2024-02-04T01:16:58;95124.94;;;8.75;62.93
5550;BME280;2798;42.716;23.256;2024-02-04T01:19:23;95120.53;;;8.77;63.37
5550;BME280;2798;42.716;23.256;2024-02-04T01:21:48;95124.78;;;8.78;63.23
5550;BME280;2798;42.716;23.256;2024-02-04T01:24:14;95132.53;;;8.77;63.67
5550;BME280;2798;42.716;23.256;2024-02-04T01:26:39;95111.28;;;8.75;63.34
5550;BME280;2798;42.716;23.256;2024-02-04T01:29:04;95108.91;;;8.72;64.16
5550;BME280;2798;42.716;23.256;2024-02-04T01:31:29;95108.91;;;8.72;64.15
5550;BME280;2798;42.716;23.256;2024-02-04T01:33:55;95112.38;;;8.71;64.49
5550;BME280;2798;42.716;23.256;2024-02-04T01:36:20;95103.03;;;8.70;63.90
5550;BME280;2798;42.716;23.256;2024-02-04T01:38:45;95102.13;;;8.71;64.59
5550;BME280;2798;42.716;23.256;2024-02-04T01:41:10;95102.13;;;8.71;64.52
5550;BME280;2798;42.716;23.256;2024-02-04T01:43:36;95102.19;;;8.69;65.05
5550;BME280;2798;42.716;23.256;2024-02-04T01:46:01;95095.34;;;8.70;64.94
5550;BME280;2798;42.716;23.256;2024-02-04T01:48:26;95104.78;;;8.69;65.01
5550;BME280;2798;42.716;23.256;2024-02-04T01:50:52;95097.72;;;8.73;65.31
5550;BME280;2798;42.716;23.256;2024-02-04T01:53:19;95094.41;;;8.71;65.98
5550;BME280;2798;42.716;23.256;2024-02-04T01:55:47;95088.28;;;8.73;65.46
5550;BME280;2798;42.716;23.256;2024-02-04T01:58:14;95095.72;;;8.78;64.27
5550;BME280;2798;42.716;23.256;2024-02-04T02:00:39;95119.00;;;8.75;65.27
5550;BME280;2798;42.716;23.256;2024-02-04T02:03:05;95097.63;;;8.74;65.46
5550;BME280;2798;42.716;23.256;2024-02-04T02:05:31;95091.22;;;8.82;64.58
5550;BME280;2798;42.716;23.256;2024-02-04T02:07:57;95097.16;;;8.82;65.30
5550;BME280;2798;42.716;23.256;2024-02-04T02:10:22;95090.59;;;8.78;65.99
5550;BME280;2798;42.716;23.256;2024-02-04T02:15:15;95078.50;;;8.80;65.22
5550;BME280;2798;42.716;23.256;2024-02-04T02:23:07;95083.97;;;8.88;65.65
5550;BME280;2798;42.716;23.256;2024-02-04T02:25:32;95076.63;;;8.82;66.13
5550;BME280;2798;42.716;23.256;2024-02-04T02:27:58;95068.75;;;8.85;65.76
5550;BME280;2798;42.716;23.256;2024-02-04T02:30:24;95075.38;;;8.89;65.09
5550;BME280;2798;42.716;23.256;2024-02-04T02:32:49;95071.97;;;8.89;65.52
5550;BME280;2798;42.716;23.256;2024-02-04T02:35:17;95073.78;;;8.87;65.96
5550;BME280;2798;42.716;23.256;2024-02-04T02:37:44;95075.38;;;8.89;65.75
5550;BME280;2798;42.716;23.256;2024-02-04T02:40:25;95078.47;;;8.95;65.35
5550;BME280;2798;42.716;23.256;2024-02-04T02:42:53;95074.34;;;8.92;65.83
5550;BME280;2798;42.716;23.256;2024-02-04T02:45:21;95069.22;;;8.92;65.69
5550;BME280;2798;42.716;23.256;2024-02-04T02:47:47;95064.09;;;8.92;65.70
5550;BME280;2798;42.716;23.256;2024-02-04T02:50:13;95064.91;;;8.93;66.25
5550;BME280;2798;42.716;23.256;2024-02-04T02:52:38;95071.69;;;8.94;66.10
5550;BME280;2798;42.716;23.256;2024-02-04T02:55:04;95069.88;;;8.96;66.37
5550;BME280;2798;42.716;23.256;2024-02-04T02:57:29;95063.72;;;8.98;66.59
5550;BME280;2798;42.716;23.256;2024-02-04T02:59:55;95065.56;;;8.96;66.34
5550;BME280;2798;42.716;23.256;2024-02-04T03:02:20;95052.44;;;9.01;65.18
5550;BME280;2798;42.716;23.256;2024-02-04T03:04:45;95062.72;;;9.01;65.48
5550;BME280;2798;42.716;23.256;2024-02-04T03:07:10;95056.00;;;8.98;66.29
5550;BME280;2798;42.716;23.256;2024-02-04T03:09:36;95059.03;;;9.05;65.76
5550;BME280;2798;42.716;23.256;2024-02-04T03:12:01;95059.56;;;9.10;65.66
5550;BME280;2798;42.716;23.256;2024-02-04T03:14:26;95052.97;;;9.06;65.70
5550;BME280;2798;42.716;23.256;2024-02-04T03:16:51;95078.81;;;9.03;65.39
5550;BME280;2798;42.716;23.256;2024-02-04T03:19:17;95063.22;;;9.06;65.51
5550;BME280;2798;42.716;23.256;2024-02-04T03:21:42;95064.34;;;9.02;65.91
5550;BME280;2798;42.716;23.256;2024-02-04T03:24:07;95055.53;;;9.06;65.61
5550;BME280;2798;42.716;23.256;2024-02-04T03:26:32;95066.34;;;9.11;65.72
5550;BME280;2798;42.716;23.256;2024-02-04T03:28:58;95075.88;;;9.09;66.22
5550;BME280;2798;42.716;23.256;2024-02-04T03:31:23;95064.63;;;9.12;65.81
5550;BME280;2798;42.716;23.256;2024-02-04T03:33:49;95057.47;;;9.17;65.26
5550;BME280;2798;42.716;23.256;2024-02-04T03:36:21;95049.38;;;9.23;64.89
5550;BME280;2798;42.716;23.256;2024-02-04T03:38:48;95050.38;;;9.21;65.45
5550;BME280;2798;42.716;23.256;2024-02-04T03:41:13;95041.69;;;9.23;65.27
5550;BME280;2798;42.716;23.256;2024-02-04T03:43:38;95036.63;;;9.22;65.80
5550;BME280;2798;42.716;23.256;2024-02-04T03:46:04;95035.06;;;9.19;66.38
5550;BME280;2798;42.716;23.256;2024-02-04T03:48:29;95033.13;;;9.23;65.66
5550;BME280;2798;42.716;23.256;2024-02-04T03:50:54;95043.50;;;9.21;65.77
5550;BME280;2798;42.716;23.256;2024-02-04T03:53:20;95025.44;;;9.23;65.42
5550;BME280;2798;42.716;23.256;2024-02-04T03:55:48;95036.63;;;9.22;65.27
5550;BME280;2798;42.716;23.256;2024-02-04T03:58:13;95038.09;;;9.26;65.33
5550;BME280;2798;42.716;23.256;2024-02-04T04:00:38;95055.50;;;9.21;65.08
5550;BME280;2798;42.716;23.256;2024-02-04T04:03:03;95055.31;;;9.24;65.74
5550;BME280;2798;42.716;23.256;2024-02-04T04:05:29;95055.41;;;9.22;65.43
5550;BME280;2798;42.716;23.256;2024-02-04T04:07:54;95046.91;;;9.22;66.12
5550;BME280;2798;42.716;23.256;2024-02-04T04:10:19;95032.31;;;9.22;65.97
5550;BME280;2798;42.716;23.256;2024-02-04T04:12:45;95045.16;;;9.22;65.95
5550;BME280;2798;42.716;23.256;2024-02-04T04:15:10;95049.56;;;9.20;66.39
5550;BME280;2798;42.716;23.256;2024-02-04T04:17:35;95036.91;;;9.17;66.79
5550;BME280;2798;42.716;23.256;2024-02-04T04:20:00;95024.69;;;9.21;66.27
5550;BME280;2798;42.716;23.256;2024-02-04T04:22:26;95033.22;;;9.21;66.26
5550;BME280;2798;42.716;23.256;2024-02-04T04:24:51;95034.97;;;9.21;66.25
5550;BME280;2798;42.716;23.256;2024-02-04T04:27:16;95040.34;;;9.31;65.51
5550;BME280;2798;42.716;23.256;2024-02-04T04:29:41;95049.63;;;9.33;65.46
5550;BME280;2798;42.716;23.256;2024-02-04T04:32:07;95047.31;;;9.28;65.30
5550;BME280;2798;42.716;23.256;2024-02-04T04:34:32;95051.66;;;9.28;66.00
5550;BME280;2798;42.716;23.256;2024-02-04T04:36:57;95038.63;;;9.31;65.63
5550;BME280;2798;42.716;23.256;2024-02-04T04:39:22;95034.41;;;9.30;65.98
5550;BME280;2798;42.716;23.256;2024-02-04T04:41:48;95041.19;;;9.31;65.78
5550;BME280;2798;42.716;23.256;2024-02-04T04:44:13;95036.78;;;9.33;65.15
5550;BME280;2798;42.716;23.256;2024-02-04T04:46:38;95030.00;;;9.32;65.90
5550;BME280;2798;42.716;23.256;2024-02-04T04:49:06;95034.22;;;9.33;65.65
5550;BME280;2798;42.716;23.256;2024-02-04T04:51:32;95039.88;;;9.38;65.33
5550;BME280;2798;42.716;23.256;2024-02-04T04:53:57;95036.50;;;9.38;65.16
5550;BME280;2798;42.716;23.256;2024-02-04T04:56:22;95033.19;;;9.36;66.17
5550;BME280;2798;42.716;23.256;2024-02-04T04:58:48;95041.44;;;9.41;65.80
5550;BME280;2798;42.716;23.256;2024-02-04T05:01:15;95040.06;;;9.35;65.88
5550;BME280;2798;42.716;23.256;2024-02-04T05:03:40;95034.63;;;9.40;65.13
5550;BME280;2798;42.716;23.256;2024-02-04T05:06:05;95038.25;;;9.37;65.41
5550;BME280;2798;42.716;23.256;2024-02-04T05:08:30;95039.88;;;9.38;65.32
5550;BME280;2798;42.716;23.256;2024-02-04T05:10:56;95052.72;;;9.38;65.33
5550;BME280;2798;42.716;23.256;2024-02-04T05:13:21;95045.09;;;9.37;65.17
5550;BME280;2798;42.716;23.256;2024-02-04T05:15:46;95040.41;;;9.44;65.57
5550;BME280;2798;42.716;23.256;2024-02-04T05:18:11;95034.84;;;9.37;65.52
5550;BME280;2798;42.716;23.256;2024-02-04T05:20:37;95036.59;;;9.36;65.43
5550;BME280;2798;42.716;23.256;2024-02-04T05:23:02;95040.06;;;9.35;65.56
5550;BME280;2798;42.716;23.256;2024-02-04T05:25:27;95054.38;;;9.39;65.69
5550;BME280;2798;42.716;23.256;2024-02-04T05:27:53;95047.88;;;9.34;65.91
5550;BME280;2798;42.716;23.256;2024-02-04T05:30:18;95076.47;;;9.42;65.70
5550;BME280;2798;42.716;23.256;2024-02-04T05:32:43;95017.38;;;9.14;65.47
5550;BME280;2798;42.716;23.256;2024-02-04T05:35:10;95080.78;;;9.42;66.23
5550;BME280;2798;42.716;23.256;2024-02-04T05:37:35;95055.63;;;9.47;65.56
5550;BME280;2798;42.716;23.256;2024-02-04T05:40:00;95037.66;;;9.47;65.47
5550;BME280;2798;42.716;23.256;2024-02-04T05:42:26;95043.72;;;9.46;65.40
5550;BME280;2798;42.716;23.256;2024-02-04T05:44:51;95052.16;;;9.48;65.11
5550;BME280;2798;42.716;23.256;2024-02-04T05:47:17;95062.34;;;9.49;64.51
5550;BME280;2798;42.716;23.256;2024-02-04T05:49:43;95062.34;;;9.49;65.16
5550;BME280;2798;42.716;23.256;2024-02-04T05:52:09;95064.81;;;9.51;64.91
5550;BME280;2798;42.716;23.256;2024-02-04T05:54:38;95038.50;;;9.47;63.78
5550;BME280;2798;42.716;23.256;2024-02-04T05:57:04;95074.91;;;9.54;63.68
5550;BME280;2798;42.716;23.256;2024-02-04T05:59:30;95072.44;;;9.52;63.98
5550;BME280;2798;42.716;23.256;2024-02-04T06:01:55;95070.19;;;9.61;63.67
5550;BME280;2798;42.716;23.256;2024-02-04T06:04:20;95081.00;;;9.66;63.38
5550;BME280;2798;42.716;23.256;2024-02-04T06:06:45;95084.16;;;9.57;63.89
5550;BME280;2798;42.716;23.256;2024-02-04T06:09:11;95078.09;;;9.58;63.45
5550;BME280;2798;42.716;23.256;2024-02-04T06:11:36;95061.84;;;9.57;63.46
5550;BME280;2798;42.716;23.256;2024-02-04T06:14:01;95087.94;;;9.51;64.14
5550;BME280;2798;42.716;23.256;2024-02-04T06:16:27;95077.13;;;9.46;63.83
5550;BME280;2798;42.716;23.256;2024-02-04T06:18:52;95091.78;;;9.44;63.89
5550;BME280;2798;42.716;23.256;2024-02-04T06:21:20;95080.88;;;9.40;64.59
5550;BME280;2798;42.716;23.256;2024-02-04T06:23:45;95090.34;;;9.39;63.96
5550;BME280;2798;42.716;23.256;2024-02-04T06:26:11;95083.44;;;9.40;63.82
5550;BME280;2798;42.716;23.256;2024-02-04T06:28:36;95101.78;;;9.48;63.24
5550;BME280;2798;42.716;23.256;2024-02-04T06:31:01;95093.09;;;9.51;63.65
5550;BME280;2798;42.716;23.256;2024-02-04T06:33:27;95087.75;;;9.54;63.67
5550;BME280;2798;42.716;23.256;2024-02-04T06:35:52;95101.09;;;9.59;63.31
5550;BME280;2798;42.716;23.256;2024-02-04T06:38:18;95089.19;;;9.58;63.45
5550;BME280;2798;42.716;23.256;2024-02-04T06:40:43;95107.63;;;9.65;63.20
5550;BME280;2798;42.716;23.256;2024-02-04T06:43:08;95122.75;;;9.70;63.40
5550;BME280;2798;42.716;23.256;2024-02-04T06:45:34;95104.97;;;9.67;63.61
5550;BME280;2798;42.716;23.256;2024-02-04T06:47:59;95089.97;;;9.73;63.08
5550;BME280;2798;42.716;23.256;2024-02-04T06:50:24;95089.50;;;9.81;63.09
5550;BME280;2798;42.716;23.256;2024-02-04T06:52:50;95090.03;;;9.86;63.17
5550;BME280;2798;42.716;23.256;2024-02-04T06:55:15;95096.72;;;9.89;62.82
5550;BME280;2798;42.716;23.256;2024-02-04T06:57:41;95112.56;;;9.96;62.98
5550;BME280;2798;42.716;23.256;2024-02-04T07:00:06;95108.25;;;9.96;63.19
5550;BME280;2798;42.716;23.256;2024-02-04T07:02:35;95112.28;;;10.00;62.99
5550;BME280;2798;42.716;23.256;2024-02-04T07:05:00;95101.91;;;10.02;62.70
5550;BME280;2798;42.716;23.256;2024-02-04T07:07:25;95114.16;;;10.11;62.32
5550;BME280;2798;42.716;23.256;2024-02-04T07:09:51;95111.59;;;10.11;62.48
5550;BME280;2798;42.716;23.256;2024-02-04T07:12:16;95103.66;;;10.14;62.06
5550;BME280;2798;42.716;23.256;2024-02-04T07:14:41;95105.13;;;10.19;62.45
5550;BME280;2798;42.716;23.256;2024-02-04T07:17:07;95117.59;;;10.25;61.82
5550;BME280;2798;42.716;23.256;2024-02-04T07:19:32;95103.16;;;10.22;62.41
5550;BME280;2798;42.716;23.256;2024-02-04T07:21:57;95098.75;;;10.24;62.59
5550;BME280;2798;42.716;23.256;2024-02-04T07:24:23;95110.88;;;10.22;61.68
5550;BME280;2798;42.716;23.256;2024-02-04T07:26:48;95112.34;;;10.26;62.19
5550;BME280;2798;42.716;23.256;2024-02-04T07:29:13;95110.09;;;10.35;61.79
5550;BME280;2798;42.716;23.256;2024-02-04T07:31:39;95118.72;;;10.34;61.90
5550;BME280;2798;42.716;23.256;2024-02-04T07:34:05;95109.81;;;10.39;61.31
5550;BME280;2798;42.716;23.256;2024-02-04T07:36:30;95110.31;;;10.45;61.78
5550;BME280;2798;42.716;23.256;2024-02-04T07:38:55;95108.28;;;10.50;61.07
5550;BME280;2798;42.716;23.256;2024-02-04T07:41:21;95106.13;;;10.57;61.25
5550;BME280;2798;42.716;23.256;2024-02-04T07:43:46;95100.88;;;10.58;61.04
5550;BME280;2798;42.716;23.256;2024-02-04T07:46:13;95104.00;;;10.63;60.75
5550;BME280;2798;42.716;23.256;2024-02-04T07:48:38;95109.03;;;10.65;60.82
5550;BME280;2798;42.716;23.256;2024-02-04T07:51:03;95119.13;;;10.68;60.61
5550;BME280;2798;42.716;23.256;2024-02-04T07:53:29;95126.97;;;10.80;60.17
5550;BME280;2798;42.716;23.256;2024-02-04T07:55:54;95117.19;;;10.85;60.01
5550;BME280;2798;42.716;23.256;2024-02-04T07:58:19;95121.91;;;10.91;59.76
5550;BME280;2798;42.716;23.256;2024-02-04T08:00:44;95119.72;;;10.98;59.24
5550;BME280;2798;42.716;23.256;2024-02-04T08:03:10;95119.22;;;11.06;59.31
5550;BME280;2798;42.716;23.256;2024-02-04T08:05:35;95116.13;;;11.13;59.12
5550;BME280;2798;42.716;23.256;2024-02-04T08:08:00;95113.97;;;11.20;58.80
5550;BME280;2798;42.716;23.256;2024-02-04T08:10:26;95119.81;;;11.22;58.45
5550;BME280;2798;42.716;23.256;2024-02-04T08:12:51;95125.78;;;11.23;58.83
5550;BME280;2798;42.716;23.256;2024-02-04T08:15:18;95116.69;;;11.30;58.39
5550;BME280;2798;42.716;23.256;2024-02-04T08:17:43;95131.03;;;11.34;58.27
5550;BME280;2798;42.716;23.256;2024-02-04T08:20:09;95110.72;;;11.43;57.97
5550;BME280;2798;42.716;23.256;2024-02-04T08:22:34;95099.13;;;11.48;58.08
5550;BME280;2798;42.716;23.256;2024-02-04T08:24:59;95113.03;;;11.59;57.60
5550;BME280;2798;42.716;23.256;2024-02-04T08:27:26;95090.75;;;11.58;57.88
5550;BME280;2798;42.716;23.256;2024-02-04T08:29:51;95116.72;;;11.68;57.60
5550;BME280;2798;42.716;23.256;2024-02-04T08:32:17;95117.97;;;11.62;58.18
5550;BME280;2798;42.716;23.256;2024-02-04T08:34:42;95117.03;;;11.63;58.18
5550;BME280;2798;42.716;23.256;2024-02-04T08:37:07;95113.69;;;11.74;57.79
5550;BME280;2798;42.716;23.256;2024-02-04T08:39:32;95139.47;;;11.74;58.19
5550;BME280;2798;42.716;23.256;2024-02-04T08:41:58;95114.03;;;11.69;58.20
5550;BME280;2798;42.716;23.256;2024-02-04T08:44:23;95120.13;;;11.68;58.25
5550;BME280;2798;42.716;23.256;2024-02-04T08:46:48;95123.50;;;11.69;58.65
5550;BME280;2798;42.716;23.256;2024-02-04T08:49:13;95120.22;;;11.67;58.75
5550;BME280;2798;42.716;23.256;2024-02-04T08:51:39;95126.28;;;11.66;58.89
5550;BME280;2798;42.716;23.256;2024-02-04T08:54:04;95119.72;;;11.61;58.75
5550;BME280;2798;42.716;23.256;2024-02-04T08:56:29;95145.91;;;11.68;59.66
5550;BME280;2798;42.716;23.256;2024-02-04T08:58:54;95136.50;;;11.67;61.04
5550;BME280;2798;42.716;23.256;2024-02-04T09:01:20;95140.03;;;11.66;60.74
5550;BME280;2798;42.716;23.256;2024-02-04T09:03:45;95138.16;;;11.68;59.92
5550;BME280;2798;42.716;23.256;2024-02-04T09:06:10;95152.47;;;11.72;61.23
5550;BME280;2798;42.716;23.256;2024-02-04T09:08:36;95152.25;;;11.75;59.70
5550;BME280;2798;42.716;23.256;2024-02-04T09:11:01;95143.19;;;11.83;59.06
5550;BME280;2798;42.716;23.256;2024-02-04T09:13:26;95151.03;;;11.81;59.06
5550;BME280;2798;42.716;23.256;2024-02-04T09:15:52;95167.41;;;11.80;58.46
5550;BME280;2798;42.716;23.256;2024-02-04T09:18:18;95139.16;;;11.79;58.40
5550;BME280;2798;42.716;23.256;2024-02-04T09:20:44;95140.94;;;11.78;58.79
5550;BME280;2798;42.716;23.256;2024-02-04T09:23:09;95142.66;;;11.78;58.59
5550;BME280;2798;42.716;23.256;2024-02-04T09:25:35;95144.53;;;11.75;58.16
5550;BME280;2798;42.716;23.256;2024-02-04T09:28:00;95162.47;;;11.77;58.44
5550;BME280;2798;42.716;23.256;2024-02-04T09:30:25;95168.34;;;11.79;58.24
5550;BME280;2798;42.716;23.256;2024-02-04T09:32:51;95169.88;;;11.82;58.17
5550;BME280;2798;42.716;23.256;2024-02-04T09:35:16;95195.94;;;11.90;58.29
5550;BME280;2798;42.716;23.256;2024-02-04T09:37:41;95171.59;;;11.94;58.20
5550;BME280;2798;42.716;23.256;2024-02-04T09:40:07;95153.78;;;11.91;58.21
5550;BME280;2798;42.716;23.256;2024-02-04T09:42:33;95171.28;;;11.99;58.57
5550;BME280;2798;42.716;23.256;2024-02-04T09:44:58;95170.84;;;12.05;58.23
5550;BME280;2798;42.716;23.256;2024-02-04T09:47:23;95164.25;;;12.01;57.94
5550;BME280;2798;42.716;23.256;2024-02-04T09:49:49;95168.25;;;12.05;58.39
5550;BME280;2798;42.716;23.256;2024-02-04T09:52:16;95181.59;;;11.99;58.51
5550;BME280;2798;42.716;23.256;2024-02-04T09:54:44;95163.81;;;12.07;57.99
5550;BME280;2798;42.716;23.256;2024-02-04T09:57:10;95167.44;;;12.05;58.58
5550;BME280;2798;42.716;23.256;2024-02-04T09:59:35;95176.09;;;12.04;58.99
5550;BME280;2798;42.716;23.256;2024-02-04T10:02:01;95161.25;;;12.07;59.18
5550;BME280;2798;42.716;23.256;2024-02-04T10:04:28;95162.56;;;12.13;59.04
5550;BME280;2798;42.716;23.256;2024-02-04T10:06:53;95171.09;;;12.27;58.77
5550;BME280;2798;42.716;23.256;2024-02-04T10:09:18;95190.91;;;12.26;58.97
5550;BME280;2798;42.716;23.256;2024-02-04T10:11:44;95168.81;;;12.22;58.71
5550;BME280;2798;42.716;23.256;2024-02-04T10:14:09;95152.66;;;12.20;59.33
5550;BME280;2798;42.716;23.256;2024-02-04T10:16:35;95162.75;;;12.23;59.39
5550;BME280;2798;42.716;23.256;2024-02-04T10:19:00;95166.41;;;12.32;59.09
5550;BME280;2798;42.716;23.256;2024-02-04T10:21:26;95159.56;;;12.19;59.79
5550;BME280;2798;42.716;23.256;2024-02-04T10:23:51;95153.78;;;12.16;59.47
5550;BME280;2798;42.716;23.256;2024-02-04T10:26:16;95162.25;;;12.18;60.23
5550;BME280;2798;42.716;23.256;2024-02-04T10:28:44;95152.66;;;12.20;59.59
5550;BME280;2798;42.716;23.256;2024-02-04T10:31:09;95146.78;;;12.05;60.13
5550;BME280;2798;42.716;23.256;2024-02-04T10:33:37;95128.13;;;12.01;60.38
5550;BME280;2798;42.716;23.256;2024-02-04T10:36:03;95184.06;;;12.01;60.84
5550;BME280;2798;42.716;23.256;2024-02-04T10:38:29;95151.19;;;11.91;61.13
5550;BME280;2798;42.716;23.256;2024-02-04T10:40:54;95145.81;;;11.94;61.24
5550;BME280;2798;42.716;23.256;2024-02-04T10:43:20;95153.66;;;11.93;60.67
5550;BME280;2798;42.716;23.256;2024-02-04T10:45:47;95148.41;;;11.94;61.17
5550;BME280;2798;42.716;23.256;2024-02-04T10:48:12;95136.41;;;11.93;60.99
5550;BME280;2798;42.716;23.256;2024-02-04T10:50:40;95134.06;;;11.90;60.96
5550;BME280;2798;42.716;23.256;2024-02-04T10:53:07;95122.22;;;11.87;61.03
5550;BME280;2798;42.716;23.256;2024-02-04T10:55:38;95130.66;;;11.90;60.95
5550;BME280;2798;42.716;23.256;2024-02-04T10:58:05;95133.56;;;11.85;61.38
5550;BME280;2798;42.716;23.256;2024-02-04T11:00:32;95133.44;;;11.86;61.33
5550;BME280;2798;42.716;23.256;2024-02-04T11:02:57;95134.16;;;11.89;61.04
5550;BME280;2798;42.716;23.256;2024-02-04T11:05:24;95142.00;;;11.87;60.88
5550;BME280;2798;42.716;23.256;2024-02-04T11:07:50;95125.88;;;11.96;60.94
5550;BME280;2798;42.716;23.256;2024-02-04T11:10:16;95163.75;;;11.96;60.54
5550;BME280;2798;42.716;23.256;2024-02-04T11:12:41;95144.66;;;11.98;60.95
5550;BME280;2798;42.716;23.256;2024-02-04T11:15:07;95115.84;;;12.05;59.85
5550;BME280;2798;42.716;23.256;2024-02-04T11:27:46;95129.38;;;12.08;60.35
5550;BME280;2798;42.716;23.256;2024-02-04T11:30:11;95121.94;;;12.04;60.61
5550;BME280;2798;42.716;23.256;2024-02-04T11:32:38;95119.47;;;12.02;60.36
5550;BME280;2798;42.716;23.256;2024-02-04T11:35:04;95097.78;;;12.05;60.46
5550;BME280;2798;42.716;23.256;2024-02-04T11:37:32;95100.06;;;12.09;60.58
5550;BME280;2798;42.716;23.256;2024-02-04T11:39:58;95106.66;;;12.14;60.20
5550;BME280;2798;42.716;23.256;2024-02-04T11:42:24;95118.38;;;12.18;59.99
5550;BME280;2798;42.716;23.256;2024-02-04T11:44:49;95124.94;;;12.22;59.48
5550;BME280;2798;42.716;23.256;2024-02-04T11:47:27;95115.84;;;12.29;59.42
5550;BME280;2798;42.716;23.256;2024-02-04T11:49:55;95111.53;;;12.30;59.43
5550;BME280;2798;42.716;23.256;2024-02-04T11:52:21;95113.66;;;12.36;59.05
5550;BME280;2798;42.716;23.256;2024-02-04T11:54:46;95080.69;;;12.40;58.99
5550;BME280;2798;42.716;23.256;2024-02-04T11:57:12;95077.31;;;12.51;59.15
5550;BME280;2798;42.716;23.256;2024-02-04T11:59:39;95079.78;;;12.64;58.71
5550;BME280;2798;42.716;23.256;2024-02-04T12:02:07;95070.53;;;12.72;58.54
5550;BME280;2798;42.716;23.256;2024-02-04T12:04:33;95091.78;;;12.88;57.43
5550;BME280;2798;42.716;23.256;2024-02-04T12:06:58;95084.28;;;12.84;56.99
5550;BME280;2798;42.716;23.256;2024-02-04T12:09:24;95070.88;;;12.91;57.05
5550;BME280;2798;42.716;23.256;2024-02-04T12:11:51;95080.50;;;13.00;56.87
5550;BME280;2798;42.716;23.256;2024-02-04T12:14:18;95077.81;;;13.02;56.50
5550;BME280;2798;42.716;23.256;2024-02-04T12:16:43;95071.69;;;13.03;56.00
5550;BME280;2798;42.716;23.256;2024-02-04T12:19:09;95062.19;;;13.03;56.50
5550;BME280;2798;42.716;23.256;2024-02-04T12:21:35;95064.41;;;13.08;56.75
5550;BME280;2798;42.716;23.256;2024-02-04T12:24:01;95066.16;;;13.19;56.08
5550;BME280;2798;42.716;23.256;2024-02-04T12:26:26;95054.53;;;13.25;56.32
5550;BME280;2798;42.716;23.256;2024-02-04T12:28:52;95045.00;;;13.25;55.66
5550;BME280;2798;42.716;23.256;2024-02-04T12:31:18;95062.78;;;13.30;56.04
5550;BME280;2798;42.716;23.256;2024-02-04T12:33:51;95043.13;;;13.39;55.36
5550;BME280;2798;42.716;23.256;2024-02-04T12:36:17;95041.59;;;13.36;55.59
5550;BME280;2798;42.716;23.256;2024-02-04T12:38:42;95018.69;;;13.43;55.25
5550;BME280;2798;42.716;23.256;2024-02-04T12:41:14;95018.91;;;13.51;55.16
5550;BME280;2798;42.716;23.256;2024-02-04T12:43:40;95011.03;;;13.53;55.36
5550;BME280;2798;42.716;23.256;2024-02-04T12:46:05;95027.81;;;13.58;54.64
5550;BME280;2798;42.716;23.256;2024-02-04T12:48:32;95021.78;;;13.69;54.55
5550;BME280;2798;42.716;23.256;2024-02-04T12:50:57;95019.88;;;13.83;54.83
5550;BME280;2798;42.716;23.256;2024-02-04T12:53:23;95022.47;;;13.83;54.15
5550;BME280;2798;42.716;23.256;2024-02-04T12:55:48;95022.34;;;13.84;54.66
5550;BME280;2798;42.716;23.256;2024-02-04T12:58:13;95030.09;;;13.84;54.06
5550;BME280;2798;42.716;23.256;2024-02-04T13:00:43;95055.47;;;13.91;54.04
5550;BME280;2798;42.716;23.256;2024-02-04T13:03:08;95026.63;;;13.95;53.82
5550;BME280;2798;42.716;23.256;2024-02-04T13:05:34;95051.41;;;13.98;53.84
5550;BME280;2798;42.716;23.256;2024-02-04T13:08:00;95071.75;;;14.03;53.04
5550;BME280;2798;42.716;23.256;2024-02-04T13:10:31;95028.72;;;14.02;53.15
5550;BME280;2798;42.716;23.256;2024-02-04T13:13:01;95039.31;;;13.99;53.79
5550;BME280;2798;42.716;23.256;2024-02-04T13:15:27;95045.31;;;13.99;53.63
5550;BME280;2798;42.716;23.256;2024-02-04T13:17:53;95034.34;;;14.07;53.45
5550;BME280;2798;42.716;23.256;2024-02-04T13:20:18;94984.38;;;13.74;53.55
5550;BME280;2798;42.716;23.256;2024-02-04T13:22:43;95035.66;;;14.01;53.25
5550;BME280;2798;42.716;23.256;2024-02-04T13:25:09;95060.84;;;13.99;53.07
5550;BME280;2798;42.716;23.256;2024-02-04T13:27:34;95061.31;;;13.93;53.12